This is the latest recevied weather packets stored in our database for station/object EA1RCG-11. If no packets are shown the sender has not sent any weather packets the latest 10 day(s).
| Time | Temp. | Humidity | Pressure | Rain* | Wind** | Luminosity | Snow |
|---|---|---|---|---|---|---|---|
| 1777568654 | 18.89° C | 62% | 981.6 hPa | - | - | - | - |
| 1777566854 | 18.89° C | 62% | 981.4 hPa | - | - | - | - |
| 1777565054 | 19.44° C | 62% | 981.1 hPa | - | - | - | - |
| 1777563254 | 20° C | 61% | 980.8 hPa | - | - | - | - |
| 1777561454 | 20° C | 62% | 980.6 hPa | - | - | - | - |
| 1777559654 | 20.56° C | 62% | 980.2 hPa | - | - | - | - |
| 1777557854 | 22.78° C | 58% | 979.7 hPa | - | - | - | - |
| 1777556053 | 25.56° C | 55% | 979.3 hPa | - | - | - | - |
| 1777554253 | 26.11° C | 54% | 979.1 hPa | - | - | - | - |
| 1777552453 | 24.44° C | 57% | 978.9 hPa | - | - | - | - |
| 1777550653 | 25.56° C | 55% | 979.2 hPa | - | - | - | - |
| 1777548853 | 26.11° C | 55% | 979.1 hPa | - | - | - | - |
| 1777547053 | 26.11° C | 56% | 979.1 hPa | - | - | - | - |
| 1777545253 | 28.89° C | 53% | 978.6 hPa | - | - | - | - |
| 1777543453 | 48.89° C | 32% | 977.9 hPa | - | - | - | - |
| 1777541653 | 49.44° C | 31% | 978.3 hPa | - | - | - | - |
| 1777539853 | 48.89° C | 31% | 978.4 hPa | - | - | - | - |
| 1777538052 | 42.22° C | 34% | 978.8 hPa | - | - | - | - |
| 1777536252 | 22.78° C | 55% | 979.3 hPa | - | - | - | - |
| 1777534452 | 23.89° C | 54% | 978.8 hPa | - | - | - | - |
| 1777532652 | 25.56° C | 49% | 979 hPa | - | - | - | - |
| 1777530852 | 14.44° C | 65% | 978.8 hPa | - | - | - | - |
| 1777529052 | 13.33° C | 66% | 978.3 hPa | - | - | - | - |
| 1777527252 | 13.33° C | 68% | 978 hPa | - | - | - | - |
| 1777525452 | 12.78° C | 68% | 977.8 hPa | - | - | - | - |
* Rain since midnight (hover to see other rain measurements)
** Current wind speed in m/s (hover to see current wind gust speed)